• Join FlightAware (Why Join?)
  • Login
  • US Flag 
08:11AM EST


 

Airport Tracker/Info


-or-


 

Live Flight TrackerFlight Track Log ✈ JIA2429 ✈ 31-Jul-2013 ✈ KAGS - KCLT

Flight Track Log - Related Links

Times and Time Zones

All times are in EDT time to prevent confusion due to time zone crossing. See the JIA2429 flight status page for this flight to view local times or setup timezone preferences in your user account.

Time Position Orientation Groundspeed Altitude Reporting Facility
EDT Latitude Longitude Course Direction KTS MPH feet Rate Location/Type
12:59PM 33.4997 -81.9986 45° Northeast 240 276 4,500  Level Atlanta Center
01:00PM 33.8715 -82.0710 351° North  Level FlightAware Approximate
01:00PM 33.5792 -82.0142 351° North 255 293 6,700  Level Atlanta Center
01:01PM 33.9992 -82.0916 354° North  Level FlightAware Approximate
01:01PM 33.6589 -82.0297 351° North 272 313 9,200  Level Atlanta Center
01:02PM 34.1262 -82.1162 347° North  Level FlightAware Approximate
01:02PM 33.7553 -82.0500 350° North 302 348 11,900  Level Atlanta Center
01:03PM 34.2500 -82.1476 90° East  Level FlightAware Approximate
01:03PM 33.8411 -82.0681 350° North 308 354 14,400  Level Atlanta Center
01:04PM 34.3324 -82.0327 45° Northeast  Level FlightAware Approximate
01:04PM 33.9247 -82.0836 351° North 308 354 16,600  Level Atlanta Center
01:05PM 34.0044 -82.1017 349° North 303 349 18,400 1,680 Climbing Atlanta Center
01:06PM 34.0861 -82.1175 351° North 297 342 20,000 1,440 Climbing Atlanta Center
01:07PM 34.1678 -82.1383 348° North 297 342 21,300 1,200 Climbing Atlanta Center
01:08PM 34.2575 -82.1414 358° North 297 342 22,500 600 Climbing Atlanta Center
01:09PM 34.3272 -82.0617 43° Northeast 299 344 22,600 -420 Climbing Atlanta Center
01:10PM 34.3967 -81.9694 48° Northeast 331 381 21,700 -1,440 Descending Atlanta Center
01:11PM 34.4683 -81.8819 45° Northeast 342 394 19,800 -1,920 Descending Atlanta Center
01:12PM 34.5294 -81.7997 48° Northeast 341 392 17,900 -1,800 Descending Atlanta Center
01:13PM 34.5967 -81.7172 45° Northeast 336 387 16,200 -1,980 Descending Atlanta Center
01:14PM 34.6600 -81.6422 44° Northeast 324 373 14,000 -2,040 Descending Atlanta Center
01:15PM 34.7150 -81.5725 46° Northeast 324 373 12,200 -1,020 Descending Atlanta Center
01:16PM 34.7800 -81.4844 48° Northeast 330 380 12,000 -480 Descending Atlanta Center
01:17PM 34.8428 -81.4042 46° Northeast 330 380 11,300 -1,380 Descending Atlanta Center
01:18PM 34.9219 -81.3003 47° Northeast 315 362 9,100 -1,200 Descending Atlanta Center
01:19PM 34.9625 -81.2508 45° Northeast 312 359 9,000 -60 Descending Atlanta Center
01:20PM 35.0192 -81.1756 47° Northeast 300 345 9,000  Level Atlanta Center
01:21PM 35.0633 -81.0953 56° Northeast 294 338 9,000  Level Atlanta Center
01:22PM 35.0883 -81.0106 70° East 269 310 9,000  Level Atlanta Center
01:23PM 35.1153 -80.9181 70° East 264 304 9,000  Level Atlanta Center
01:24PM 35.1653 -80.8400 52° Northeast 261 300 9,000 -420 Level Atlanta Center
01:25PM 35.2406 -80.8422 359° North 251 289 8,100 -1,200 Descending Atlanta Center
01:26PM 35.3181 -80.8494 356° North 257 296 6,500 -1,200 Descending Atlanta Center
01:27PM 35.3789 -80.8597 352° North 231 266 5,700 -1,020 Descending Atlanta Center
01:28PM 35.4417 -80.8703 352° North 221 254 4,600 -840 Descending Atlanta Center
01:29PM 35.5042 -80.8703 360° North 216 249 4,000 -300 Descending Atlanta Center
01:30PM 35.5647 -80.8706 360° North 223 257 4,000  Level Atlanta Center
01:31PM 35.6275 -80.8833 351° North 230 265 4,000  Level Atlanta Center
01:32PM 35.6167 -80.9450 258° West 199 229 4,000  Level Atlanta Center
01:33PM 35.5672 -80.9700 202° Southwest 192 221 4,000  Level Atlanta Center
01:34PM 35.5150 -80.9669 177° South 180 207 4,000  Level Atlanta Center
01:35PM 35.4667 -80.9583 172° South 163 188 4,000  Level Atlanta Center
01:36PM 35.4189 -80.9578 179° South 168 193 4,000 -240 Level Atlanta Center
01:37PM 35.3728 -80.9517 174° South 169 194 3,600 -660 Descending Atlanta Center
01:39PM 35.3267 -80.9483 177° South 170 196 2,700 -840 Descending Atlanta Center
01:40PM 35.2850 -80.9447 176° South 134 154 1,900 -780 Descending Atlanta Center
01:41PM 35.2453 -80.9411 176° South 133 153 1,200 -720 Descending Atlanta Center